createdAt,value
2022-08-03T00:00:24.328Z,9.43
2022-08-03T00:02:51.227Z,6.90
2022-08-03T00:05:17.914Z,7.32
2022-08-03T00:07:44.574Z,8.02
2022-08-03T00:10:12.669Z,7.57
2022-08-03T00:12:39.261Z,8.05
2022-08-03T00:15:08.349Z,8.82
2022-08-03T00:17:53.655Z,6.40
2022-08-03T00:20:23.990Z,7.07
2022-08-03T00:22:51.593Z,8.55
2022-08-03T00:25:18.736Z,7.72
2022-08-03T00:27:45.669Z,8.48
2022-08-03T00:30:15.265Z,8.15
2022-08-03T00:32:45.092Z,10.02
2022-08-03T00:35:21.284Z,7.50
2022-08-03T00:37:59.263Z,8.00
2022-08-03T00:40:26.146Z,7.88
2022-08-03T00:42:55.070Z,8.35
2022-08-03T00:45:23.764Z,7.65
2022-08-03T00:47:51.146Z,7.82
2022-08-03T00:50:19.396Z,7.35
2022-08-03T00:52:47.198Z,8.13
2022-08-03T00:55:15.552Z,8.60
2022-08-03T00:57:43.295Z,8.93
2022-08-03T01:00:11.996Z,6.80
2022-08-03T01:02:39.875Z,7.90
2022-08-03T01:05:07.644Z,7.07
2022-08-03T01:08:02.040Z,8.60
2022-08-03T01:10:47.341Z,7.97
2022-08-03T01:14:00.230Z,9.50
2022-08-03T01:16:37.689Z,7.15
2022-08-03T01:19:29.474Z,7.38
2022-08-03T01:24:53.788Z,9.20
2022-08-03T01:27:36.214Z,10.85
2022-08-03T01:30:10.294Z,7.97
2022-08-03T01:32:58.411Z,7.82
2022-08-03T01:35:39.313Z,8.30
2022-08-03T01:38:15.257Z,9.05
2022-08-03T01:40:44.661Z,8.43
2022-08-03T01:43:59.008Z,8.77
2022-08-03T01:46:05.458Z,10.20
2022-08-03T01:48:33.315Z,8.95
2022-08-03T01:51:00.988Z,9.98
2022-08-03T01:53:29.006Z,9.18
2022-08-03T01:55:57.523Z,9.70
2022-08-03T01:58:26.987Z,9.05
2022-08-03T02:01:01.123Z,7.25
2022-08-03T02:03:29.943Z,8.65
2022-08-03T02:07:00.761Z,10.75
2022-08-03T02:08:46.969Z,9.57
2022-08-03T02:11:13.808Z,8.50
2022-08-03T02:13:40.868Z,9.07
2022-08-03T02:16:09.496Z,9.50
2022-08-03T02:18:39.672Z,9.18
2022-08-03T02:21:11.258Z,9.95
2022-08-03T02:23:38.863Z,9.85
2022-08-03T02:26:09.413Z,10.07
2022-08-03T02:28:40.403Z,9.60
2022-08-03T02:31:13.853Z,7.90
2022-08-03T02:33:44.271Z,8.93
2022-08-03T02:36:13.397Z,8.90
2022-08-03T02:38:42.931Z,8.73
2022-08-03T02:41:17.145Z,10.75
2022-08-03T02:44:05.410Z,10.07
2022-08-03T02:46:38.682Z,10.23
2022-08-03T02:49:35.051Z,9.18
2022-08-03T02:51:55.418Z,8.02
2022-08-03T02:54:24.910Z,9.63
2022-08-03T02:56:54.158Z,9.50
2022-08-03T02:59:21.469Z,10.30
2022-08-03T03:01:49.120Z,7.38
2022-08-03T03:04:16.510Z,8.32
2022-08-03T03:06:44.330Z,8.75
2022-08-03T03:09:14.773Z,9.70
2022-08-03T03:11:42.645Z,8.38
2022-08-03T03:14:11.015Z,9.25
2022-08-03T03:16:39.488Z,8.10
2022-08-03T03:19:08.648Z,7.45
2022-08-03T03:21:36.713Z,8.93
2022-08-03T03:24:05.009Z,7.78
2022-08-03T03:26:32.148Z,8.02
2022-08-03T03:28:59.359Z,8.20
2022-08-03T03:31:26.042Z,7.55
2022-08-03T03:33:52.824Z,9.10
2022-08-03T03:36:19.669Z,8.63
2022-08-03T03:38:46.441Z,8.15
2022-08-03T03:41:13.365Z,7.93
2022-08-03T03:43:41.536Z,8.88
2022-08-03T03:46:08.317Z,7.72
2022-08-03T03:48:35.112Z,8.30
2022-08-03T03:51:02.686Z,7.53
2022-08-03T03:53:29.335Z,7.60
2022-08-03T03:55:59.418Z,8.18
2022-08-03T03:58:30.603Z,9.70
2022-08-03T04:00:57.276Z,8.55
2022-08-03T04:03:24.037Z,9.13
2022-08-03T04:06:09.701Z,7.85
2022-08-03T04:08:55.053Z,8.20
2022-08-03T04:11:30.407Z,7.35
2022-08-03T04:14:24.425Z,8.40
2022-08-03T04:16:56.575Z,8.50
2022-08-03T04:19:45.269Z,7.30
2022-08-03T04:22:17.910Z,11.18
2022-08-03T04:25:01.359Z,7.57
2022-08-03T04:27:33.237Z,9.18
2022-08-03T04:30:03.042Z,7.57
2022-08-03T04:32:33.357Z,9.23
2022-08-03T04:35:00.753Z,7.18
2022-08-03T04:37:37.707Z,9.93
2022-08-03T04:40:09.285Z,8.38
2022-08-03T04:45:06.162Z,7.72
2022-08-03T04:47:34.267Z,8.43
2022-08-03T04:50:02.720Z,8.80
2022-08-03T04:52:29.635Z,8.48
2022-08-03T04:54:56.902Z,7.75
2022-08-03T04:57:23.726Z,7.28
2022-08-03T05:00:01.700Z,8.07
2022-08-03T05:02:30.492Z,10.05
2022-08-03T05:04:57.401Z,8.60
2022-08-03T05:07:25.147Z,7.85
2022-08-03T05:10:01.405Z,9.02
2022-08-03T05:12:32.847Z,7.30
2022-08-03T05:15:00.408Z,8.57
2022-08-03T05:17:27.332Z,8.82
2022-08-03T05:19:54.486Z,7.93
2022-08-03T05:22:21.692Z,7.93
2022-08-03T05:24:48.419Z,9.95
2022-08-03T05:27:19.460Z,7.60
2022-08-03T05:29:47.269Z,9.40
2022-08-03T05:32:14.124Z,7.30
2022-08-03T05:34:40.837Z,7.80
2022-08-03T05:37:07.623Z,7.85
2022-08-03T05:39:35.371Z,8.23
2022-08-03T05:42:04.275Z,6.80
2022-08-03T05:44:31.807Z,7.40
2022-08-03T05:46:59.588Z,7.35
2022-08-03T05:49:26.372Z,8.52
2022-08-03T05:52:00.588Z,7.25
2022-08-03T05:54:56.064Z,6.82
2022-08-03T05:57:25.327Z,7.03
2022-08-03T05:59:54.675Z,8.20
2022-08-03T06:02:28.486Z,7.63
2022-08-03T06:04:55.097Z,7.32
2022-08-03T06:07:21.725Z,6.80
2022-08-03T06:10:33.186Z,6.80
2022-08-03T06:12:38.972Z,9.27
2022-08-03T06:15:06.011Z,6.30
2022-08-03T06:17:37.114Z,5.93
2022-08-03T06:20:05.617Z,7.55
2022-08-03T06:22:32.227Z,9.25
2022-08-03T06:24:59.051Z,8.48
2022-08-03T06:27:37.170Z,6.40
2022-08-03T06:30:05.145Z,6.90
2022-08-03T06:32:31.820Z,6.45
2022-08-03T06:34:58.462Z,7.32
2022-08-03T06:37:25.037Z,8.02
2022-08-03T06:39:51.629Z,7.55
2022-08-03T06:42:18.524Z,7.60
2022-08-03T06:44:47.304Z,6.95
2022-08-03T06:47:13.878Z,7.15
2022-08-03T06:49:41.687Z,7.47
2022-08-03T06:52:08.336Z,6.85
2022-08-03T06:54:35.974Z,6.75
2022-08-03T06:57:03.628Z,7.25
2022-08-03T07:00:08.852Z,5.53
2022-08-03T07:02:19.283Z,7.20
2022-08-03T07:04:48.990Z,5.13
2022-08-03T07:07:15.804Z,7.72
2022-08-03T07:09:42.394Z,9.93
2022-08-03T07:12:24.071Z,5.80
2022-08-03T07:14:50.707Z,6.30
2022-08-03T07:17:17.285Z,6.70
2022-08-03T07:19:43.971Z,6.13
2022-08-03T07:22:11.559Z,7.53
2022-08-03T07:24:38.175Z,6.20
2022-08-03T07:27:04.884Z,6.95
2022-08-03T07:29:31.474Z,7.30
2022-08-03T07:32:01.611Z,7.63
2022-08-03T07:34:28.232Z,6.88
2022-08-03T07:36:54.799Z,7.75
2022-08-03T07:39:21.393Z,7.00
2022-08-03T07:41:50.259Z,8.18
2022-08-03T07:44:17.735Z,9.95
2022-08-03T07:46:44.541Z,9.43
2022-08-03T07:49:11.262Z,7.22
2022-08-03T07:51:38.290Z,7.45
2022-08-03T07:54:05.229Z,6.45
2022-08-03T07:56:31.921Z,14.13
2022-08-03T07:58:59.812Z,6.93
2022-08-03T08:01:26.727Z,7.03
2022-08-03T08:03:53.832Z,4.93
2022-08-03T08:06:21.676Z,4.47
2022-08-03T08:08:48.351Z,4.47
2022-08-03T08:11:15.155Z,4.15
2022-08-03T08:13:41.822Z,4.78
2022-08-03T08:16:08.510Z,5.38
2022-08-03T08:18:35.259Z,4.32
2022-08-03T08:21:03.395Z,4.22
2022-08-03T08:23:42.200Z,6.00
2022-08-03T08:26:10.574Z,5.67
2022-08-03T08:28:37.321Z,5.38
2022-08-03T08:31:04.078Z,5.35
2022-08-03T08:33:54.266Z,5.63
2022-08-03T08:36:17.772Z,4.93
2022-08-03T08:38:45.113Z,3.55
2022-08-03T08:41:13.648Z,4.70
2022-08-03T08:43:41.156Z,4.47
2022-08-03T08:46:11.912Z,5.75
2022-08-03T08:48:42.138Z,3.97
2022-08-03T08:51:09.862Z,4.35
2022-08-03T08:53:38.383Z,5.78
2022-08-03T08:56:07.810Z,5.97
2022-08-03T08:58:42.028Z,6.88
2022-08-03T09:01:08.800Z,5.47
2022-08-03T09:03:35.878Z,4.05
2022-08-03T09:06:03.653Z,7.20
2022-08-03T09:08:32.318Z,4.85
2022-08-03T09:10:59.529Z,5.20
2022-08-03T09:13:26.401Z,3.72
2022-08-03T09:16:13.960Z,6.78
2022-08-03T09:18:42.318Z,5.13
2022-08-03T09:21:31.814Z,5.70
2022-08-03T09:24:02.696Z,4.23
2022-08-03T09:26:31.294Z,5.43
2022-08-03T09:29:16.811Z,7.38
2022-08-03T09:31:46.115Z,5.57
2022-08-03T09:34:14.958Z,4.70
2022-08-03T09:36:46.507Z,4.97
2022-08-03T09:39:14.792Z,9.57
2022-08-03T09:41:44.347Z,6.55
2022-08-03T09:44:16.166Z,6.10
2022-08-03T09:46:56.786Z,4.03
2022-08-03T09:49:24.551Z,4.78
2022-08-03T09:52:29.994Z,3.25
2022-08-03T09:54:38.460Z,3.95
2022-08-03T09:57:05.228Z,4.03
2022-08-03T09:59:33.534Z,4.20
2022-08-03T10:02:00.951Z,5.18
2022-08-03T10:04:28.167Z,5.30
2022-08-03T10:07:08.402Z,6.18
2022-08-03T10:09:36.412Z,3.92
2022-08-03T10:12:14.027Z,4.68
2022-08-03T10:14:42.396Z,7.15
2022-08-03T10:17:12.330Z,5.82
2022-08-03T10:19:39.847Z,4.90
2022-08-03T10:22:19.469Z,5.75
2022-08-03T10:25:11.602Z,6.80
2022-08-03T10:27:42.659Z,4.78
2022-08-03T10:30:11.267Z,4.07
2022-08-03T10:32:43.118Z,3.85
2022-08-03T10:35:20.024Z,3.45
2022-08-03T10:38:12.935Z,5.72
2022-08-03T10:40:48.549Z,3.88
2022-08-03T10:43:28.635Z,4.63
2022-08-03T10:45:56.798Z,4.57
2022-08-03T10:48:24.103Z,5.55
2022-08-03T10:50:51.204Z,7.70
2022-08-03T10:53:35.028Z,3.75
2022-08-03T10:56:27.431Z,6.18
2022-08-03T10:59:06.871Z,3.53
2022-08-03T11:01:58.990Z,4.15
2022-08-03T11:04:29.781Z,5.05
2022-08-03T11:07:22.881Z,4.78
2022-08-03T11:09:54.819Z,6.35
2022-08-03T11:12:32.846Z,15.73
2022-08-03T11:15:05.777Z,5.65
2022-08-03T11:17:45.853Z,3.20
2022-08-03T11:21:07.142Z,4.43
2022-08-03T11:24:05.018Z,4.38
2022-08-03T11:26:34.547Z,3.63
2022-08-03T11:29:27.483Z,4.32
2022-08-03T11:31:54.161Z,4.93
2022-08-03T11:34:20.955Z,3.80
2022-08-03T11:37:20.676Z,5.22
2022-08-03T11:39:49.556Z,4.80
2022-08-03T11:42:22.189Z,6.13
2022-08-03T11:44:53.744Z,7.10
2022-08-03T11:47:22.298Z,4.35
2022-08-03T11:49:49.949Z,4.55
2022-08-03T11:52:17.993Z,6.07
2022-08-03T11:54:44.839Z,3.75
2022-08-03T11:57:12.058Z,3.35
2022-08-03T11:59:39.000Z,5.20
2022-08-03T12:02:13.060Z,8.57
2022-08-03T12:04:53.394Z,4.50
2022-08-03T12:07:24.490Z,4.47
2022-08-03T12:10:09.233Z,4.35
2022-08-03T12:12:36.439Z,3.95
2022-08-03T12:15:04.453Z,4.00
2022-08-03T12:17:39.588Z,5.05
2022-08-03T12:20:08.473Z,2.95
2022-08-03T12:22:37.484Z,2.95
2022-08-03T12:25:08.647Z,4.55
2022-08-03T12:27:36.678Z,4.57
2022-08-03T12:30:04.230Z,4.15
2022-08-03T12:32:31.400Z,5.90
2022-08-03T12:35:04.512Z,3.17
2022-08-03T12:37:31.809Z,4.32
2022-08-03T12:40:07.762Z,3.60
2022-08-03T12:42:38.906Z,2.95
2022-08-03T12:45:26.496Z,3.47
2022-08-03T12:48:01.083Z,3.47
2022-08-03T12:50:32.997Z,5.03
2022-08-03T12:53:01.527Z,2.95
2022-08-03T12:55:57.948Z,4.53
2022-08-03T12:58:34.416Z,4.47
2022-08-03T13:01:05.161Z,4.63
2022-08-03T13:03:50.039Z,4.07
2022-08-03T13:06:24.812Z,4.38
2022-08-03T13:09:12.066Z,2.95
2022-08-03T13:11:55.715Z,2.95
2022-08-03T13:14:26.397Z,3.67
2022-08-03T13:16:53.814Z,3.17
2022-08-03T13:19:20.554Z,4.50
2022-08-03T13:22:01.811Z,4.03
2022-08-03T13:24:32.282Z,3.40
2022-08-03T13:26:59.934Z,4.00
2022-08-03T13:29:26.792Z,4.90
2022-08-03T13:31:53.504Z,5.38
2022-08-03T13:34:23.427Z,2.75
2022-08-03T13:39:57.494Z,3.78
2022-08-03T13:42:25.720Z,3.55
2022-08-03T13:44:52.462Z,5.68
2022-08-03T13:47:19.790Z,6.32
2022-08-03T13:50:00.136Z,2.45
2022-08-03T13:52:33.271Z,5.05
2022-08-03T13:55:00.789Z,4.47
2022-08-03T13:58:03.732Z,4.50
2022-08-03T14:00:27.946Z,14.68
2022-08-03T14:03:14.820Z,5.15
2022-08-03T14:05:43.272Z,4.22
2022-08-03T14:08:11.477Z,3.80
2022-08-03T14:10:40.803Z,4.72
2022-08-03T14:13:07.969Z,2.83
2022-08-03T14:15:37.514Z,3.30
2022-08-03T14:18:05.858Z,3.05
2022-08-03T14:20:37.338Z,2.47
2022-08-03T14:23:06.963Z,3.03
2022-08-03T14:25:49.989Z,4.63
2022-08-03T14:28:17.858Z,4.70
2022-08-03T14:30:44.474Z,3.55
2022-08-03T14:33:11.042Z,4.47
2022-08-03T14:35:37.702Z,5.05
2022-08-03T14:38:04.429Z,4.55
2022-08-03T14:40:31.015Z,4.20
2022-08-03T14:42:57.648Z,2.28
2022-08-03T14:45:24.727Z,2.63
2022-08-03T14:50:28.751Z,3.53
2022-08-03T14:50:43.261Z,3.78
2022-08-03T14:53:14.077Z,3.15
2022-08-03T14:55:50.075Z,3.95
2022-08-03T14:58:20.770Z,4.25
2022-08-03T15:00:48.776Z,4.72
2022-08-03T15:03:17.234Z,2.67
2022-08-03T15:05:44.882Z,4.10
2022-08-03T15:08:11.516Z,3.80
2022-08-03T15:10:40.586Z,4.00
2022-08-03T15:13:14.929Z,3.55
2022-08-03T15:15:41.789Z,4.18
2022-08-03T15:18:09.074Z,2.92
2022-08-03T15:20:44.577Z,3.22
2022-08-03T15:23:13.149Z,3.80
2022-08-03T15:26:28.462Z,3.13
2022-08-03T15:28:26.655Z,4.15
2022-08-03T15:30:53.336Z,5.03
2022-08-03T15:33:20.222Z,4.72
2022-08-03T15:35:47.742Z,4.95
2022-08-03T15:38:15.584Z,2.88
2022-08-03T15:40:42.225Z,3.00
2022-08-03T15:43:09.140Z,3.88
2022-08-03T15:45:36.859Z,3.50
2022-08-03T15:48:05.712Z,3.58
2022-08-03T15:50:32.383Z,3.10
2022-08-03T15:52:59.406Z,3.50
2022-08-03T15:55:26.166Z,2.70
2022-08-03T15:59:03.616Z,3.47
2022-08-03T16:00:41.764Z,3.70
2022-08-03T16:03:08.706Z,3.65
2022-08-03T16:05:35.542Z,4.70
2022-08-03T16:08:04.266Z,4.47
2022-08-03T16:10:32.452Z,2.85
2022-08-03T16:13:00.086Z,4.47
2022-08-03T16:15:31.149Z,4.20
2022-08-03T16:17:57.827Z,4.38
2022-08-03T16:20:30.818Z,4.80
2022-08-03T16:23:10.899Z,2.72
2022-08-03T16:25:42.692Z,4.05
2022-08-03T16:28:14.591Z,3.42
2022-08-03T16:30:43.858Z,5.15
2022-08-03T16:33:11.876Z,4.80
2022-08-03T16:35:44.868Z,4.38
2022-08-03T16:38:15.205Z,5.50
2022-08-03T16:40:45.841Z,5.07
2022-08-03T16:43:17.947Z,3.90
2022-08-03T16:45:46.406Z,4.07
2022-08-03T16:48:13.296Z,4.25
2022-08-03T16:50:40.027Z,2.90
2022-08-03T16:53:09.216Z,5.15
2022-08-03T16:55:43.408Z,3.15
2022-08-03T16:58:19.628Z,3.13
2022-08-03T17:01:20.895Z,2.83
2022-08-03T17:04:01.458Z,3.38
2022-08-03T17:06:33.912Z,4.03
2022-08-03T17:09:09.691Z,4.53
2022-08-03T17:11:47.146Z,2.42
2022-08-03T17:14:28.245Z,4.32
2022-08-03T17:17:03.768Z,3.08
2022-08-03T17:19:32.376Z,2.95
2022-08-03T17:22:16.011Z,3.15
2022-08-03T17:25:07.441Z,3.65
2022-08-03T17:28:48.765Z,3.40
2022-08-03T17:30:25.172Z,2.83
2022-08-03T17:32:52.449Z,2.45
2022-08-03T17:35:34.489Z,4.10
2022-08-03T17:38:06.640Z,4.28
2022-08-03T17:40:35.895Z,3.72
2022-08-03T17:43:44.351Z,4.78
2022-08-03T17:45:52.301Z,3.30
2022-08-03T17:48:21.175Z,4.60
2022-08-03T17:50:59.884Z,4.35
2022-08-03T17:53:34.767Z,3.55
2022-08-03T17:56:42.649Z,3.25
2022-08-03T17:59:51.521Z,4.55
2022-08-03T18:03:01.604Z,3.83
2022-08-03T18:06:11.635Z,4.97
2022-08-03T18:08:25.749Z,4.60
2022-08-03T18:11:03.511Z,3.80
2022-08-03T18:13:57.757Z,4.95
2022-08-03T18:16:38.351Z,2.97
2022-08-03T18:19:09.623Z,5.20
2022-08-03T18:22:03.250Z,4.45
2022-08-03T18:24:30.898Z,4.03
2022-08-03T18:26:59.366Z,4.47
2022-08-03T18:29:27.366Z,4.25
2022-08-03T18:32:03.088Z,4.25
2022-08-03T18:34:34.126Z,4.40
2022-08-03T18:37:04.264Z,3.60
2022-08-03T18:39:49.486Z,6.63
2022-08-03T18:42:19.715Z,3.70
2022-08-03T18:48:12.247Z,5.55
2022-08-03T18:50:53.414Z,6.28
2022-08-03T18:54:03.560Z,7.32
2022-08-03T18:56:44.987Z,7.33
2022-08-03T18:59:30.013Z,4.20
2022-08-03T19:02:05.439Z,6.93
2022-08-03T19:04:34.165Z,4.85
2022-08-03T19:07:09.202Z,4.65
2022-08-03T19:09:42.486Z,3.95
2022-08-03T19:12:31.057Z,5.90
2022-08-03T19:15:10.608Z,4.00
2022-08-03T19:17:43.503Z,4.05
2022-08-03T19:20:25.547Z,3.53
2022-08-03T19:22:53.428Z,4.35
2022-08-03T19:25:20.544Z,5.03
2022-08-03T19:28:03.771Z,4.35
2022-08-03T19:30:46.400Z,3.28
2022-08-03T19:33:20.505Z,4.28
2022-08-03T19:35:55.274Z,5.45
2022-08-03T19:38:28.641Z,6.03
2022-08-03T19:41:02.217Z,3.60
2022-08-03T19:43:49.298Z,4.85
2022-08-03T19:46:22.574Z,3.60
2022-08-03T19:49:03.260Z,5.80
2022-08-03T19:52:00.940Z,3.95
2022-08-03T19:54:29.765Z,4.45
2022-08-03T19:57:01.880Z,3.83
2022-08-03T19:59:30.934Z,5.68
2022-08-03T20:01:57.556Z,4.18
2022-08-03T20:04:24.433Z,4.03
2022-08-03T20:06:52.275Z,4.93
2022-08-03T20:09:20.592Z,4.35
2022-08-03T20:11:47.879Z,5.85
2022-08-03T20:14:20.912Z,6.60
2022-08-03T20:16:53.590Z,4.38
2022-08-03T20:19:20.291Z,5.32
2022-08-03T20:21:48.390Z,5.38
2022-08-03T20:24:36.805Z,6.72
2022-08-03T20:27:08.078Z,5.13
2022-08-03T20:30:05.255Z,5.80
2022-08-03T20:32:27.950Z,6.15
2022-08-03T20:34:54.547Z,5.70
2022-08-03T20:37:22.148Z,4.45
2022-08-03T20:39:49.556Z,5.40
2022-08-03T20:42:21.514Z,6.57
2022-08-03T20:44:58.942Z,4.43
2022-08-03T20:47:36.551Z,4.00
2022-08-03T20:50:09.594Z,5.88
2022-08-03T20:52:43.930Z,4.65
2022-08-03T20:55:20.371Z,4.35
2022-08-03T20:58:05.565Z,5.90
2022-08-03T21:00:32.771Z,4.15
2022-08-03T21:02:59.497Z,4.57
2022-08-03T21:05:47.717Z,5.30
2022-08-03T21:08:16.120Z,4.65
2022-08-03T21:10:42.998Z,4.68
2022-08-03T21:13:04.819Z,4.60
2022-08-03T21:13:25.103Z,5.20
2022-08-03T21:16:14.309Z,4.88
2022-08-03T21:19:02.759Z,4.20
2022-08-03T21:21:31.963Z,6.78
2022-08-03T21:24:00.098Z,5.45
2022-08-03T21:26:27.618Z,6.75
2022-08-03T21:28:55.899Z,5.32
2022-08-03T21:31:25.428Z,5.57
2022-08-03T21:33:58.227Z,5.07
2022-08-03T21:36:28.100Z,5.28
2022-08-03T21:38:57.418Z,5.15
2022-08-03T21:41:29.224Z,4.88
2022-08-03T21:43:56.418Z,5.10
2022-08-03T21:46:23.733Z,5.35
2022-08-03T21:50:04.047Z,5.25
2022-08-03T21:51:49.633Z,4.30
2022-08-03T21:54:17.927Z,4.55
2022-08-03T21:56:47.487Z,4.25
2022-08-03T21:59:17.585Z,6.13
2022-08-03T22:01:49.124Z,5.35
2022-08-03T22:04:50.283Z,3.78
2022-08-03T22:07:10.396Z,6.25
2022-08-03T22:09:37.241Z,4.82
2022-08-03T22:12:04.563Z,4.60
2022-08-03T22:14:34.302Z,5.40
2022-08-03T22:17:06.278Z,6.20
2022-08-03T22:19:33.868Z,5.40
2022-08-03T22:22:04.448Z,5.85
2022-08-03T22:24:32.803Z,5.35
2022-08-03T22:27:20.770Z,4.35
2022-08-03T22:29:51.072Z,4.70
2022-08-03T22:32:17.808Z,5.05
2022-08-03T22:34:47.142Z,4.47
2022-08-03T22:37:16.144Z,5.00
2022-08-03T22:39:44.526Z,5.15
2022-08-03T22:42:11.350Z,6.25
2022-08-03T22:44:38.260Z,5.53
2022-08-03T22:47:05.889Z,5.75
2022-08-03T22:49:35.549Z,4.95
2022-08-03T22:52:02.534Z,4.85
2022-08-03T22:54:31.674Z,5.35
2022-08-03T22:56:58.882Z,4.93
2022-08-03T22:59:40.226Z,6.07
2022-08-03T23:02:21.350Z,6.70
2022-08-03T23:04:55.096Z,5.47
2022-08-03T23:07:29.037Z,4.82
2022-08-03T23:09:56.728Z,7.35
2022-08-03T23:12:23.656Z,5.25
2022-08-03T23:14:56.307Z,5.97
2022-08-03T23:17:25.738Z,4.93
2022-08-03T23:19:53.929Z,5.28
2022-08-03T23:22:29.928Z,5.13
2022-08-03T23:24:59.187Z,4.78
2022-08-03T23:27:28.116Z,6.55
2022-08-03T23:29:57.413Z,5.00
2022-08-03T23:32:29.140Z,4.65
2022-08-03T23:35:17.058Z,5.18
2022-08-03T23:38:04.373Z,5.80
2022-08-03T23:40:33.559Z,4.95
2022-08-03T23:43:01.926Z,4.05
2022-08-03T23:45:30.504Z,6.10
2022-08-03T23:47:57.153Z,4.28
2022-08-03T23:50:24.544Z,5.07
2022-08-03T23:53:11.262Z,5.35
2022-08-03T23:55:47.223Z,4.93
2022-08-03T23:58:51.273Z,5.15
